Accueil
METAR-TAF:

METAR-TAF

Aéroports :

Aéroport international Lynden Pindling

Nassau, Bahamas

latitude: 25-03N, longitude: 077-28W, altitude: 3 m

Observation

Le bulletin a été fait il y a 56 minutes, à 11:00 UTC
Vent calme
Température 17°C
Humidité 100%
Pression 1014 hPa
Visibilité 10 km ou plus
Quelques nuages à une hauteur de 1800 ft
Nuages épars à une hauteur de 20000 ft

METAR: MYNN 161100Z 00000KT 9999 FEW018 SCT200 17/17 A2995

Heure: 06:56 (11:56 UTC)

Prévision

Le bulletin a été fait il y a 1 heure et 26 minutes, à 10:30 UTC
Prévision valable du 16 à 12 UTC au 17 à 12 UTC
Vent 2 kt de direction variable
Visibilité 10 km ou plus
Quelques nuages à une hauteur de 2000 ft
Nuages fragmentés à une hauteur de 20000 ft

TAF: MYNN 161030Z 1612/1712 VRB02KT 9999 FEW020 BKN200

Observations et prévisions météorologiques de plus de 4000 aéroports (messages METAR et TAF).

Les stations disponibles sont représentées par des disques jaunes et rouges sur la carte.

Passer la souris dessus pour voir le nom de la station.

Cliquer dessus pour voir les observations et prévisions météorologiques.

Pour changer de carte: cliquez sur les boutons verts avec une croix noire pour zoomer, sur le bouton vert avec un tiret pour effectuer un zoom arrière, ou sur les flèches vertes pour les cartes adjacentes.


METAR-TAF: